Time;durP1;ratioP1;P1;durP2;ratioP2;P2;SDS_P1;SDS_P2;PMS_P1;PMS_P2;Temp;Humidity;BMP_temperature;BMP_pressure;BME280_temperature;BME280_humidity;BME280_pressure;Samples;Min_cycle;Max_cycle;Signal;HPM_P1;HPM_P2
2024/02/22 00:00:23;;;;;;;;;;;;;;;16.57;42.36;101378.09;4947379;29;1125;-36
2024/02/22 00:02:49;;;;;;;;;;;;;;;15.91;43.69;101377.56;4956336;29;1102;-35
2024/02/22 00:05:14;;;;;;;;;;;;;;;15.70;44.63;101384.19;4957813;29;1057;-35
2024/02/22 00:07:40;;;;;;;;;;;;;;;15.41;45.06;101379.63;4958067;29;995;-35
2024/02/22 00:10:08;;;;;;;;;;;;;;;16.26;43.67;101373.78;4954907;29;1069;-35
2024/02/22 00:12:38;;;;;;;;;;;;;;;17.45;40.87;101370.78;4956865;29;1906;-35
2024/02/22 00:15:03;;;;;;;;;;;;;;;16.59;42.33;101357.59;4957818;29;1133;-35
2024/02/22 00:17:29;;;;;;;;;;;;;;;15.92;43.96;101365.16;4958045;29;1074;-35
2024/02/22 00:19:54;;;;;;;;;;;;;;;15.59;44.64;101360.94;4957784;29;1070;-35
2024/02/22 00:22:20;;;;;;;;;;;;;;;15.39;45.10;101357.66;4958033;28;1164;-35
2024/02/22 00:24:45;;;;;;;;;;;;;;;16.63;42.61;101352.00;4958337;29;1126;-36
2024/02/22 00:27:11;;;;;;;;;;;;;;;17.24;40.98;101342.84;4957407;29;1077;-35
2024/02/22 00:29:37;;;;;;;;;;;;;;;16.32;42.95;101339.78;4958131;29;1510;-36
2024/02/22 00:32:02;;;;;;;;;;;;;;;15.82;44.39;101348.94;4957951;29;1919;-35
2024/02/22 00:34:28;;;;;;;;;;;;;;;15.58;45.00;101343.31;4952790;29;1080;-35
2024/02/22 00:36:53;;;;;;;;;;;;;;;15.35;45.35;101325.16;4956031;29;1073;-35
2024/02/22 00:39:19;;;;;;;;;;;;;;;15.91;44.18;101321.00;4958294;29;1220;-35
2024/02/22 00:41:44;;;;;;;;;;;;;;;17.23;41.35;101330.47;4957484;29;1449;-36
2024/02/22 00:44:10;;;;;;;;;;;;;;;16.98;41.48;101317.94;4958223;29;1264;-36
2024/02/22 00:46:35;;;;;;;;;;;;;;;16.11;43.43;101326.94;4952162;29;1140;-36
2024/02/22 00:49:02;;;;;;;;;;;;;;;15.76;44.39;101330.75;4949863;29;1145;-36
2024/02/22 00:51:27;;;;;;;;;;;;;;;15.49;45.09;101334.97;4944847;29;1887;-36
2024/02/22 00:53:53;;;;;;;;;;;;;;;15.28;45.63;101323.81;4957474;29;1128;-36
2024/02/22 00:56:18;;;;;;;;;;;;;;;16.16;43.64;101316.88;4957325;29;1124;-36
2024/02/22 00:58:44;;;;;;;;;;;;;;;17.37;40.98;101316.28;4957097;29;1042;-36
2024/02/22 01:01:10;;;;;;;;;;;;;;;16.62;42.21;101315.78;4940357;29;1058;-36
2024/02/22 01:03:35;;;;;;;;;;;;;;;15.96;43.67;101310.97;4956595;29;1065;-36
2024/02/22 01:06:01;;;;;;;;;;;;;;;15.63;44.63;101309.44;4957513;28;1117;-36
2024/02/22 01:08:26;;;;;;;;;;;;;;;15.40;45.35;101304.53;4959963;29;1163;-36
2024/02/22 01:10:52;;;;;;;;;;;;;;;16.23;43.49;101296.94;4960632;29;1903;-36
2024/02/22 01:13:17;;;;;;;;;;;;;;;17.40;40.86;101296.59;4960975;29;1037;-36
2024/02/22 01:15:43;;;;;;;;;;;;;;;16.53;42.69;101295.13;4961131;29;1074;-37
2024/02/22 01:18:09;;;;;;;;;;;;;;;15.93;43.95;101292.59;4960757;29;987;-37
2024/02/22 01:20:34;;;;;;;;;;;;;;;15.63;44.82;101289.03;4960473;29;1042;-36
2024/02/22 01:23:03;;;;;;;;;;;;;;;15.45;44.96;101290.16;4954804;29;1133;-37
2024/02/22 01:25:28;;;;;;;;;;;;;;;16.97;42.13;101282.53;4958330;29;1224;-37
2024/02/22 01:27:53;;;;;;;;;;;;;;;17.06;41.45;101275.75;4960461;29;1085;-35
2024/02/22 01:30:19;;;;;;;;;;;;;;;16.16;43.21;101282.38;4960666;28;1135;-35
2024/02/22 01:32:45;;;;;;;;;;;;;;;15.74;44.22;101275.16;4960355;29;1982;-36
2024/02/22 01:35:10;;;;;;;;;;;;;;;15.52;44.70;101287.06;4957510;29;1045;-35
2024/02/22 01:37:36;;;;;;;;;;;;;;;15.30;45.20;101290.09;4960345;29;1062;-35
2024/02/22 01:40:02;;;;;;;;;;;;;;;16.77;42.37;101294.47;4960710;29;1141;-35
2024/02/22 01:42:28;;;;;;;;;;;;;;;17.16;41.26;101288.47;4950575;29;1173;-36
2024/02/22 01:44:53;;;;;;;;;;;;;;;16.13;43.29;101291.38;4957459;29;1173;-36
2024/02/22 01:47:19;;;;;;;;;;;;;;;15.72;44.61;101290.28;4960212;29;1037;-35
2024/02/22 01:49:45;;;;;;;;;;;;;;;15.51;44.83;101292.44;4959522;29;1086;-35
2024/02/22 01:52:10;;;;;;;;;;;;;;;15.24;45.41;101295.78;4943165;29;1911;-35
2024/02/22 01:54:36;;;;;;;;;;;;;;;16.28;43.64;101296.69;4959822;28;1171;-36
2024/02/22 01:57:01;;;;;;;;;;;;;;;17.37;40.98;101291.47;4960188;28;1092;-35
2024/02/22 01:59:27;;;;;;;;;;;;;;;16.28;43.25;101288.72;4956278;29;1120;-35
2024/02/22 02:01:53;;;;;;;;;;;;;;;15.78;44.26;101287.25;4934046;29;1144;-35
2024/02/22 02:04:18;;;;;;;;;;;;;;;15.54;44.76;101301.06;4959879;29;1539;-35
2024/02/22 02:06:45;;;;;;;;;;;;;;;15.46;45.19;101303.34;4959862;29;1066;-36
2024/02/22 02:09:11;;;;;;;;;;;;;;;17.01;41.82;101291.16;4959543;29;1151;-36
2024/02/22 02:11:38;;;;;;;;;;;;;;;16.65;42.21;101290.81;4958370;29;1922;-36
2024/02/22 02:14:04;;;;;;;;;;;;;;;15.85;44.07;101290.38;4959845;29;1101;-35
2024/02/22 02:16:30;;;;;;;;;;;;;;;15.57;44.54;101286.78;4959922;29;1140;-36
2024/02/22 02:18:55;;;;;;;;;;;;;;;15.33;45.17;101289.09;4958891;28;1426;-35
2024/02/22 02:21:53;;;;;;;;;;;;;;;16.72;42.71;101288.59;4958504;29;1060;-36
2024/02/22 02:24:21;;;;;;;;;;;;;;;16.86;41.62;101288.56;4926806;29;1325;-36
2024/02/22 02:26:47;;;;;;;;;;;;;;;16.02;43.72;101289.41;4947084;29;1220;-36
2024/02/22 02:29:12;;;;;;;;;;;;;;;15.55;44.81;101286.00;4959035;29;1160;-35
2024/02/22 02:31:38;;;;;;;;;;;;;;;15.47;44.81;101283.81;4959550;29;1914;-35
2024/02/22 02:34:03;;;;;;;;;;;;;;;16.35;43.44;101278.56;4959184;28;1104;-35
2024/02/22 02:36:29;;;;;;;;;;;;;;;17.45;40.81;101286.47;4958392;29;1193;-36
2024/02/22 02:38:54;;;;;;;;;;;;;;;16.50;42.41;101289.97;4959906;29;1062;-35
2024/02/22 02:41:20;;;;;;;;;;;;;;;15.93;44.08;101289.09;4958746;29;1104;-36
2024/02/22 02:43:45;;;;;;;;;;;;;;;15.63;44.81;101280.25;4959245;29;1116;-36
2024/02/22 02:46:11;;;;;;;;;;;;;;;15.35;45.28;101282.75;4958987;29;1081;-35
2024/02/22 02:48:36;;;;;;;;;;;;;;;16.46;43.09;101273.41;4958925;29;843;-36
2024/02/22 02:51:03;;;;;;;;;;;;;;;17.49;40.41;101264.06;4958867;29;1909;-36
2024/02/22 02:53:29;;;;;;;;;;;;;;;16.51;42.64;101266.00;4959172;29;1085;-36
2024/02/22 02:55:55;;;;;;;;;;;;;;;15.93;43.77;101265.19;4958726;29;1018;-36
2024/02/22 02:58:20;;;;;;;;;;;;;;;15.61;44.54;101268.88;4959266;29;1209;-36
2024/02/22 03:00:46;;;;;;;;;;;;;;;15.39;45.00;101273.69;4958444;29;927;-36
2024/02/22 03:03:11;;;;;;;;;;;;;;;16.79;42.11;101273.97;4958993;29;1022;-36
2024/02/22 03:05:37;;;;;;;;;;;;;;;17.10;41.33;101279.09;4958989;29;1117;-36
2024/02/22 03:08:03;;;;;;;;;;;;;;;16.21;43.02;101277.63;4958830;29;1027;-36
2024/02/22 03:10:29;;;;;;;;;;;;;;;15.79;44.20;101278.38;4958244;29;1914;-36
2024/02/22 03:12:54;;;;;;;;;;;;;;;15.48;44.63;101276.72;4951724;29;885;-36
2024/02/22 03:15:20;;;;;;;;;;;;;;;15.35;45.02;101277.44;4946069;29;1173;-35
2024/02/22 03:17:46;;;;;;;;;;;;;;;16.65;42.67;101261.56;4958790;29;1125;-35
2024/02/22 03:20:11;;;;;;;;;;;;;;;17.04;41.21;101267.03;4958035;29;1218;-36
2024/02/22 03:22:37;;;;;;;;;;;;;;;16.14;43.14;101257.72;4946823;29;1071;-35
2024/02/22 03:25:03;;;;;;;;;;;;;;;15.68;44.32;101267.56;4957587;29;964;-35
2024/02/22 03:27:28;;;;;;;;;;;;;;;15.54;44.91;101273.69;4958408;29;1054;-36
2024/02/22 03:29:54;;;;;;;;;;;;;;;15.98;44.07;101261.31;4945226;29;1220;-36
2024/02/22 03:32:19;;;;;;;;;;;;;;;17.33;40.86;101261.56;4957031;29;1895;-35
2024/02/22 03:34:47;;;;;;;;;;;;;;;16.79;41.95;101262.47;4958258;29;1176;-38
2024/02/22 03:37:13;;;;;;;;;;;;;;;16.01;43.42;101266.47;4947717;29;1145;-39
2024/02/22 03:39:41;;;;;;;;;;;;;;;15.66;44.69;101270.28;4958355;29;1105;-40
2024/02/22 03:42:08;;;;;;;;;;;;;;;15.42;44.85;101280.59;4957644;29;1085;-37
2024/02/22 03:44:34;;;;;;;;;;;;;;;15.69;44.47;101293.13;4956977;29;1097;-36
2024/02/22 03:47:00;;;;;;;;;;;;;;;17.06;41.85;101286.41;4958052;29;1041;-41
2024/02/22 03:49:25;;;;;;;;;;;;;;;16.79;42.04;101289.06;4957658;29;1206;-41
2024/02/22 03:51:52;;;;;;;;;;;;;;;16.06;43.31;101287.41;4956387;29;1902;-40
2024/02/22 03:54:17;;;;;;;;;;;;;;;15.59;44.66;101299.94;4957008;29;2371;-42
2024/02/22 03:56:43;;;;;;;;;;;;;;;15.41;44.83;101297.44;4957559;29;1319;-40
2024/02/22 03:59:08;;;;;;;;;;;;;;;16.70;42.38;101296.66;4957552;29;1351;-39
2024/02/22 04:01:35;;;;;;;;;;;;;;;17.09;41.19;101290.69;4939912;29;1387;-38
2024/02/22 04:04:01;;;;;;;;;;;;;;;16.16;43.23;101298.31;4957654;29;1263;-39
2024/02/22 04:06:26;;;;;;;;;;;;;;;15.81;44.11;101296.00;4956960;29;1311;-41
2024/02/22 04:08:52;;;;;;;;;;;;;;;15.51;44.62;101301.25;4957659;29;1303;-38
2024/02/22 04:11:18;;;;;;;;;;;;;;;16.60;42.69;101307.03;4957522;29;1903;-38
2024/02/22 04:13:43;;;;;;;;;;;;;;;17.28;40.83;101310.72;4957170;29;1319;-39
2024/02/22 04:16:08;;;;;;;;;;;;;;;16.23;42.97;101310.22;4957672;29;1350;-38
2024/02/22 04:18:34;;;;;;;;;;;;;;;15.87;43.98;101316.81;4957652;29;1097;-40
2024/02/22 04:21:00;;;;;;;;;;;;;;;15.51;44.90;101311.00;4957063;29;1278;-36
2024/02/22 04:23:26;;;;;;;;;;;;;;;15.30;45.29;101306.00;4957023;29;2678;-37
2024/02/22 04:25:51;;;;;;;;;;;;;;;16.70;42.48;101303.81;4947307;29;895;-38
2024/02/22 04:28:20;;;;;;;;;;;;;;;17.10;41.32;101295.88;4957803;29;1001;-37
2024/02/22 04:30:46;;;;;;;;;;;;;;;16.13;43.21;101306.47;4957690;29;1902;-37
2024/02/22 04:33:14;;;;;;;;;;;;;;;15.68;44.32;101304.69;4956486;29;1074;-39
2024/02/22 04:35:41;;;;;;;;;;;;;;;15.46;45.01;101299.81;4957034;29;1049;-42
2024/02/22 04:38:08;;;;;;;;;;;;;;;16.13;43.86;101298.50;4946797;29;1015;-39
2024/02/22 04:40:34;;;;;;;;;;;;;;;17.29;40.89;101294.66;4957907;28;1118;-38
2024/02/22 04:42:59;;;;;;;;;;;;;;;16.32;42.83;101310.59;4948580;29;1181;-37
2024/02/22 04:45:25;;;;;;;;;;;;;;;15.84;44.10;101301.97;4960878;29;1018;-37
2024/02/22 04:47:50;;;;;;;;;;;;;;;15.45;45.11;101290.16;4961725;29;993;-37
2024/02/22 04:50:16;;;;;;;;;;;;;;;15.77;44.39;101292.66;4950978;29;1037;-37
2024/02/22 04:52:42;;;;;;;;;;;;;;;17.24;41.29;101294.13;4959932;29;1906;-46
2024/02/22 04:55:08;;;;;;;;;;;;;;;16.72;42.00;101294.78;4960711;29;2703;-43
2024/02/22 04:57:34;;;;;;;;;;;;;;;15.98;43.74;101295.81;4960427;29;1049;-36
2024/02/22 04:59:59;;;;;;;;;;;;;;;15.66;44.63;101299.47;4960022;29;1074;-36
2024/02/22 05:02:25;;;;;;;;;;;;;;;15.49;44.69;101299.63;4957514;29;979;-37
2024/02/22 05:04:50;;;;;;;;;;;;;;;15.28;45.69;101302.63;4960397;29;1061;-38
2024/02/22 05:07:16;;;;;;;;;;;;;;;16.63;42.65;101298.88;4960282;29;1011;-37
2024/02/22 05:09:42;;;;;;;;;;;;;;;17.43;40.80;101304.38;4952064;29;1129;-36
2024/02/22 05:12:07;;;;;;;;;;;;;;;16.35;42.74;101297.97;4955182;29;2008;-35
2024/02/22 05:14:33;;;;;;;;;;;;;;;16.72;42.52;101299.22;4961109;29;1109;-37
2024/02/22 05:16:58;;;;;;;;;;;;;;;17.90;39.74;101298.53;4960722;29;1069;-36
2024/02/22 05:19:24;;;;;;;;;;;;;;;16.25;43.29;101295.06;4961008;29;1022;-36
2024/02/22 05:21:51;;;;;;;;;;;;;;;17.22;41.37;101298.69;4960799;29;983;-37
2024/02/22 05:24:17;;;;;;;;;;;;;;;17.55;40.30;101292.03;4959287;29;2680;-36
2024/02/22 05:26:43;;;;;;;;;;;;;;;15.90;43.81;101298.94;4957204;29;1026;-37
2024/02/22 05:29:08;;;;;;;;;;;;;;;17.78;40.48;101304.72;4961015;29;1005;-37
2024/02/22 05:31:34;;;;;;;;;;;;;;;16.81;42.03;101298.66;4960370;29;1907;-38
2024/02/22 05:34:00;;;;;;;;;;;;;;;17.54;41.14;101302.78;4960576;29;1159;-37
2024/02/22 05:36:25;;;;;;;;;;;;;;;18.53;38.70;101305.69;4957966;29;1029;-38
2024/02/22 05:38:50;;;;;;;;;;;;;;;16.69;42.58;101302.94;4949972;29;1141;-37
2024/02/22 05:41:16;;;;;;;;;;;;;;;15.91;43.89;101311.22;4960535;29;1201;-38
2024/02/22 05:43:42;;;;;;;;;;;;;;;18.09;40.04;101322.06;4951037;29;1152;-37
2024/02/22 05:46:07;;;;;;;;;;;;;;;16.70;42.57;101309.13;4956478;29;1129;-37
2024/02/22 05:48:33;;;;;;;;;;;;;;;17.23;42.04;101308.38;4958178;29;1220;-37
2024/02/22 05:50:59;;;;;;;;;;;;;;;17.95;39.97;101319.50;4943899;29;1918;-37
2024/02/22 05:53:24;;;;;;;;;;;;;;;16.43;43.02;101321.41;4954908;28;2572;-37
2024/02/22 05:55:50;;;;;;;;;;;;;;;15.96;43.96;101326.03;4954317;29;1030;-37
2024/02/22 05:58:16;;;;;;;;;;;;;;;17.78;40.89;101328.66;4960385;29;1188;-36
2024/02/22 06:00:42;;;;;;;;;;;;;;;17.00;41.88;101329.31;4958738;29;1113;-37
2024/02/22 06:03:08;;;;;;;;;;;;;;;16.16;43.53;101328.34;4960013;29;1185;-37
2024/02/22 06:05:34;;;;;;;;;;;;;;;17.83;40.76;101329.19;4959949;29;1018;-43
2024/02/22 06:08:00;;;;;;;;;;;;;;;16.80;42.51;101320.84;4954868;29;1499;-42
2024/02/22 06:10:27;;;;;;;;;;;;;;;16.03;44.02;101328.25;4955958;29;975;-38
2024/02/22 06:12:53;;;;;;;;;;;;;;;18.13;40.27;101322.72;4959740;29;1910;-38
2024/02/22 06:15:18;;;;;;;;;;;;;;;16.66;42.75;101313.78;4959891;29;1065;-38
2024/02/22 06:17:44;;;;;;;;;;;;;;;17.07;42.50;101308.50;4959889;29;1097;-38
2024/02/22 06:20:10;;;;;;;;;;;;;;;17.74;40.43;101323.56;4959885;29;1168;-38
2024/02/22 06:22:35;;;;;;;;;;;;;;;16.45;43.09;101322.16;4960221;29;1070;-38
2024/02/22 06:25:01;;;;;;;;;;;;;;;16.00;43.97;101324.91;4959336;29;1065;-38
2024/02/22 06:27:26;;;;;;;;;;;;;;;17.54;41.77;101332.03;4959844;29;1058;-40
2024/02/22 06:29:52;;;;;;;;;;;;;;;17.07;41.86;101332.41;4959383;29;1102;-37
2024/02/22 06:32:17;;;;;;;;;;;;;;;16.21;43.61;101332.50;4959890;29;1982;-37
2024/02/22 06:34:43;;;;;;;;;;;;;;;17.65;41.04;101329.50;4959531;29;1030;-37
2024/02/22 06:37:09;;;;;;;;;;;;;;;16.25;43.61;101336.66;4959076;29;1081;-37
2024/02/22 06:39:34;;;;;;;;;;;;;;;17.89;40.77;101338.56;4959771;29;1164;-39
2024/02/22 06:42:01;;;;;;;;;;;;;;;17.58;40.65;101344.19;4959262;29;1023;-36
2024/02/22 06:44:27;;;;;;;;;;;;;;;17.92;40.56;101348.97;4959097;29;1109;-36
2024/02/22 06:46:52;;;;;;;;;;;;;;;19.24;37.83;101352.13;4959492;29;1137;-37
2024/02/22 06:49:18;;;;;;;;;;;;;;;15.04;47.26;101342.84;4959016;29;1140;-36
2024/02/22 06:51:44;;;;;;;;;;;;;;;18.35;39.93;101353.16;4959087;29;1906;-37
2024/02/22 06:54:09;;;;;;;;;;;;;;;18.24;39.70;101348.59;4959415;29;1213;-37
2024/02/22 06:56:35;;;;;;;;;;;;;;;17.14;42.43;101341.75;4959112;29;1014;-36
2024/02/22 06:59:00;;;;;;;;;;;;;;;19.14;38.20;101343.97;4958911;29;1069;-37
2024/02/22 07:01:26;;;;;;;;;;;;;;;14.98;46.79;101338.72;4955522;29;1205;-37
2024/02/22 07:03:51;;;;;;;;;;;;;;;18.26;40.27;101337.81;4958414;28;1429;-37
2024/02/22 07:06:17;;;;;;;;;;;;;;;18.34;39.20;101338.13;4958548;29;1101;-38
2024/02/22 07:08:42;;;;;;;;;;;;;;;16.20;44.88;101338.78;4951559;29;1122;-36
2024/02/22 07:11:13;;;;;;;;;;;;;;;18.85;39.04;101333.63;4953517;29;1901;-36
2024/02/22 07:13:39;;;;;;;;;;;;;;;17.55;41.27;101331.94;4953333;29;1092;-35
2024/02/22 07:16:04;;;;;;;;;;;;;;;16.77;42.92;101326.34;4953976;29;1054;-37
2024/02/22 07:18:30;;;;;;;;;;;;;;;16.37;43.54;101320.00;4958523;29;1402;-37
2024/02/22 07:20:59;;;;;;;;;;;;;;;16.12;43.93;101323.31;4958032;29;1145;-38
2024/02/22 07:23:24;;;;;;;;;;;;;;;17.16;42.61;101326.53;4958607;29;1198;-39
2024/02/22 07:25:50;;;;;;;;;;;;;;;17.47;41.47;101321.81;4958636;29;1160;-39
2024/02/22 07:28:15;;;;;;;;;;;;;;;16.47;43.31;101322.06;4958479;29;1112;-38
2024/02/22 07:30:41;;;;;;;;;;;;;;;16.19;44.00;101321.13;4958556;29;1895;-38
2024/02/22 07:33:09;;;;;;;;;;;;;;;17.63;41.69;101318.13;4958959;29;1022;-38
2024/02/22 07:35:35;;;;;;;;;;;;;;;17.02;42.33;101319.44;4958267;29;1386;-37
2024/02/22 07:38:00;;;;;;;;;;;;;;;16.36;43.87;101322.75;4955594;29;1327;-41
2024/02/22 07:40:26;;;;;;;;;;;;;;;16.04;43.92;101323.78;4957820;29;1037;-41
2024/02/22 07:42:51;;;;;;;;;;;;;;;17.59;41.68;101321.94;4958450;29;1236;-42
2024/02/22 07:45:18;;;;;;;;;;;;;;;16.80;42.81;101323.50;4958578;29;1038;-38
2024/02/22 07:47:43;;;;;;;;;;;;;;;16.09;44.17;101318.19;4958513;29;1017;-39
2024/02/22 07:50:10;;;;;;;;;;;;;;;15.90;44.60;101319.28;4957865;29;1044;-38
2024/02/22 07:52:41;;;;;;;;;;;;;;;15.70;44.21;101318.69;4952836;29;1910;-37
2024/02/22 07:55:07;;;;;;;;;;;;;;;15.77;45.12;101316.53;4957776;29;1228;-37
2024/02/22 07:57:33;;;;;;;;;;;;;;;17.29;41.87;101315.94;4957966;29;1173;-37
2024/02/22 07:59:58;;;;;;;;;;;;;;;15.96;44.77;101318.06;4957758;29;1165;-37
2024/02/22 08:02:24;;;;;;;;;;;;;;;15.77;44.73;101322.69;4956815;29;1022;-41
2024/02/22 08:04:50;;;;;;;;;;;;;;;17.23;42.57;101322.50;4957879;29;1066;-38
2024/02/22 08:07:16;;;;;;;;;;;;;;;16.95;42.64;101321.66;4958303;29;1058;-39
2024/02/22 08:09:41;;;;;;;;;;;;;;;16.03;44.66;101311.50;4957791;29;1166;-38
2024/02/22 08:12:07;;;;;;;;;;;;;;;16.97;43.29;101309.13;4955353;29;1914;-39
2024/02/22 08:14:32;;;;;;;;;;;;;;;17.02;42.21;101316.78;4946980;29;1045;-37
2024/02/22 08:16:58;;;;;;;;;;;;;;;16.40;44.13;101319.78;4960012;28;1086;-36
2024/02/22 08:19:23;;;;;;;;;;;;;;;18.50;39.58;101319.22;4960558;29;1068;-38
2024/02/22 08:21:51;;;;;;;;;;;;;;;16.80;42.66;101314.69;4960541;29;1138;-36
2024/02/22 08:24:17;;;;;;;;;;;;;;;16.24;44.20;101311.09;4960919;29;1058;-36
2024/02/22 08:26:42;;;;;;;;;;;;;;;15.78;44.35;101308.47;4951242;29;1101;-36
2024/02/22 08:29:08;;;;;;;;;;;;;;;17.05;43.16;101307.78;4960174;29;967;-38
2024/02/22 08:31:34;;;;;;;;;;;;;;;17.47;41.31;101303.19;4960383;29;1975;-36
2024/02/22 08:33:59;;;;;;;;;;;;;;;16.33;44.04;101299.03;4961334;29;1029;-37
2024/02/22 08:36:25;;;;;;;;;;;;;;;15.92;44.46;101296.19;4961117;29;1125;-38
2024/02/22 08:38:50;;;;;;;;;;;;;;;18.02;40.77;101294.16;4956804;29;1085;-37
2024/02/22 08:41:16;;;;;;;;;;;;;;;16.58;43.30;101289.50;4960822;29;990;-37
2024/02/22 08:43:42;;;;;;;;;;;;;;;15.99;44.30;101297.53;4960615;29;1006;-37
2024/02/22 08:46:07;;;;;;;;;;;;;;;15.82;44.23;101297.69;4960850;29;1034;-36
2024/02/22 08:48:35;;;;;;;;;;;;;;;17.99;41.02;101297.03;4958752;29;1034;-37
2024/02/22 08:51:01;;;;;;;;;;;;;;;16.54;43.58;101302.13;4950114;29;1915;-37
2024/02/22 08:53:26;;;;;;;;;;;;;;;15.99;44.39;101302.00;4959200;29;1221;-37
2024/02/22 08:56:11;;;;;;;;;;;;;;;15.81;44.52;101298.63;4960787;29;1085;-36
2024/02/22 08:58:59;;;;;;;;;;;;;;;17.60;41.43;101292.56;4952494;29;1078;-38
2024/02/22 09:01:25;;;;;;;;;;;;;;;16.18;44.25;101295.53;4960776;29;1011;-37
2024/02/22 09:03:50;;;;;;;;;;;;;;;15.71;44.93;101298.34;4955412;29;887;-36
2024/02/22 09:06:16;;;;;;;;;;;;;;;16.47;44.22;101300.81;4960468;29;1150;-35
2024/02/22 09:08:43;;;;;;;;;;;;;;;16.23;44.01;101302.25;4960693;29;1118;-37
2024/02/22 09:11:08;;;;;;;;;;;;;;;16.63;43.71;101303.34;4960193;29;1906;-37
2024/02/22 09:13:47;;;;;;;;;;;;;;;18.00;40.35;101304.03;4959918;29;1158;-37
2024/02/22 09:16:14;;;;;;;;;;;;;;;16.27;43.88;101290.50;4955340;29;1017;-40
2024/02/22 09:18:39;;;;;;;;;;;;;;;15.80;44.75;101289.81;4960405;29;1030;-37
2024/02/22 09:21:05;;;;;;;;;;;;;;;17.07;42.95;101293.41;4960018;29;1118;-36
2024/02/22 09:23:30;;;;;;;;;;;;;;;16.18;44.13;101283.13;4960078;29;1208;-37
2024/02/22 09:25:56;;;;;;;;;;;;;;;16.78;43.58;101285.56;4960337;29;1018;-37
2024/02/22 09:28:21;;;;;;;;;;;;;;;17.29;41.80;101292.00;4945196;29;924;-37
2024/02/22 09:30:47;;;;;;;;;;;;;;;16.10;44.30;101280.94;4960175;29;1979;-37
2024/02/22 09:33:13;;;;;;;;;;;;;;;15.86;44.42;101281.50;4960060;29;1118;-37
2024/02/22 09:35:41;;;;;;;;;;;;;;;16.22;44.38;101284.63;4959637;29;1013;-37
2024/02/22 09:38:06;;;;;;;;;;;;;;;18.10;40.38;101286.47;4959875;29;1030;-37
2024/02/22 09:40:33;;;;;;;;;;;;;;;16.46;43.72;101280.53;4946805;29;1165;-37
2024/02/22 09:43:00;;;;;;;;;;;;;;;15.93;44.30;101273.16;4959140;29;1014;-38
2024/02/22 09:45:25;;;;;;;;;;;;;;;15.74;44.36;101269.84;4958629;29;1049;-37
2024/02/22 09:47:51;;;;;;;;;;;;;;;17.49;42.04;101276.50;4960175;29;1015;-38
2024/02/22 09:50:17;;;;;;;;;;;;;;;16.47;43.78;101268.94;4959067;29;1030;-37
2024/02/22 09:52:43;;;;;;;;;;;;;;;15.87;44.79;101266.41;4942396;29;1978;-37
2024/02/22 09:55:09;;;;;;;;;;;;;;;17.14;43.00;101256.66;4959408;29;1126;-37
2024/02/22 09:57:34;;;;;;;;;;;;;;;16.59;43.66;101257.53;4959369;29;1049;-37
2024/02/22 10:00:00;;;;;;;;;;;;;;;15.94;44.86;101254.50;4959547;29;1038;-37
2024/02/22 10:02:26;;;;;;;;;;;;;;;15.72;44.35;101257.59;4959498;29;1073;-38
2024/02/22 10:04:52;;;;;;;;;;;;;;;15.74;44.81;101256.56;4958919;29;1034;-37
2024/02/22 10:07:24;;;;;;;;;;;;;;;17.69;41.46;101250.31;4959771;29;1043;-36
2024/02/22 10:09:50;;;;;;;;;;;;;;;16.16;44.17;101237.25;4959351;29;1065;-37
2024/02/22 10:12:25;;;;;;;;;;;;;;;16.30;44.82;101236.34;4934868;29;1910;-42
2024/02/22 10:14:51;;;;;;;;;;;;;;;17.78;41.05;101231.06;4952240;29;1046;-39
2024/02/22 10:17:36;;;;;;;;;;;;;;;16.32;44.09;101230.94;4950943;29;1118;-39
2024/02/22 10:20:09;;;;;;;;;;;;;;;15.87;44.32;101230.13;4946408;29;1034;-40
2024/02/22 10:22:36;;;;;;;;;;;;;;;16.63;44.03;101223.66;4959277;29;1049;-39
2024/02/22 10:25:08;;;;;;;;;;;;;;;16.89;42.71;101223.72;4959093;28;1045;-37
2024/02/22 10:27:34;;;;;;;;;;;;;;;15.82;44.63;101221.59;4959028;29;1076;-42
2024/02/22 10:29:59;;;;;;;;;;;;;;;16.24;44.74;101220.81;4953566;29;1067;-40
2024/02/22 10:32:25;;;;;;;;;;;;;;;17.67;41.20;101213.19;4958710;29;1974;-42
2024/02/22 10:34:50;;;;;;;;;;;;;;;16.29;44.22;101208.13;4958969;29;1173;-40
2024/02/22 10:37:16;;;;;;;;;;;;;;;15.90;44.39;101205.19;4950032;29;1200;-41
2024/02/22 10:39:44;;;;;;;;;;;;;;;15.93;45.16;101205.03;4947193;28;1170;-40
2024/02/22 10:42:11;;;;;;;;;;;;;;;17.73;41.25;101202.09;4957158;29;1029;-39
2024/02/22 10:44:40;;;;;;;;;;;;;;;16.29;43.68;101192.19;4958285;29;1101;-42
2024/02/22 10:47:05;;;;;;;;;;;;;;;15.86;44.49;101196.59;4958467;29;1089;-38
2024/02/22 10:49:31;;;;;;;;;;;;;;;15.67;44.93;101180.97;4958531;29;1308;-35
2024/02/22 10:51:58;;;;;;;;;;;;;;;17.31;42.00;101181.06;4956191;29;1985;-37
2024/02/22 10:54:24;;;;;;;;;;;;;;;15.99;44.48;101179.94;4957124;29;1320;-37
2024/02/22 10:56:49;;;;;;;;;;;;;;;16.87;43.30;101183.13;4958318;29;1291;-35
2024/02/22 10:59:15;;;;;;;;;;;;;;;16.81;42.98;101173.75;4957937;29;1260;-40
2024/02/22 11:01:41;;;;;;;;;;;;;;;16.06;44.44;101170.63;4958161;29;1050;-41
2024/02/22 11:04:07;;;;;;;;;;;;;;;15.81;44.33;101158.03;4940695;29;839;-39
2024/02/22 11:06:41;;;;;;;;;;;;;;;17.19;42.61;101165.97;4958423;29;1109;-39
2024/02/22 11:09:20;;;;;;;;;;;;;;;16.33;44.15;101148.53;4958418;29;1093;-37
2024/02/22 11:11:49;;;;;;;;;;;;;;;17.67;41.61;101148.47;4958566;29;1902;-35
2024/02/22 11:14:24;;;;;;;;;;;;;;;17.47;41.33;101142.75;4958007;29;1006;-37
2024/02/22 11:16:50;;;;;;;;;;;;;;;16.25;44.21;101130.47;4953162;29;1219;-39
2024/02/22 11:19:22;;;;;;;;;;;;;;;16.06;44.67;101128.19;4957947;29;1089;-41
2024/02/22 11:21:51;;;;;;;;;;;;;;;17.49;41.63;101131.06;4957859;29;1077;-40
2024/02/22 11:24:20;;;;;;;;;;;;;;;16.36;43.73;101126.25;4958031;29;1152;-41
2024/02/22 11:26:45;;;;;;;;;;;;;;;15.79;44.75;101129.81;4957831;29;1456;-37
2024/02/22 11:29:11;;;;;;;;;;;;;;;17.79;41.47;101122.78;4946622;29;1149;-40
2024/02/22 11:31:36;;;;;;;;;;;;;;;16.60;43.38;101125.59;4954792;29;1974;-40
2024/02/22 11:34:02;;;;;;;;;;;;;;;15.97;44.46;101124.28;4957655;29;995;-36
2024/02/22 11:36:28;;;;;;;;;;;;;;;15.82;44.31;101120.78;4940638;29;1051;-40
2024/02/22 11:38:58;;;;;;;;;;;;;;;16.33;44.56;101119.34;4957514;29;1129;-37
2024/02/22 11:41:23;;;;;;;;;;;;;;;16.77;42.98;101121.78;4957588;29;864;-40
2024/02/22 11:43:49;;;;;;;;;;;;;;;15.96;44.48;101122.59;4957911;29;1065;-39
2024/02/22 11:46:15;;;;;;;;;;;;;;;16.59;44.21;101113.25;4957381;29;1014;-37
2024/02/22 11:48:40;;;;;;;;;;;;;;;17.07;42.36;101109.13;4956186;29;1112;-36
2024/02/22 11:51:06;;;;;;;;;;;;;;;16.13;44.37;101110.06;4957285;29;1986;-39
2024/02/22 11:53:31;;;;;;;;;;;;;;;15.84;44.55;101104.78;4936315;29;1151;-40
2024/02/22 11:55:57;;;;;;;;;;;;;;;16.72;43.70;101114.13;4948250;29;1106;-39
2024/02/22 11:58:22;;;;;;;;;;;;;;;16.99;42.64;101104.38;4957619;29;1034;-41
2024/02/22 12:00:48;;;;;;;;;;;;;;;16.06;44.28;101109.59;4956705;29;1363;-38
2024/02/22 12:03:14;;;;;;;;;;;;;;;16.46;44.41;101108.78;4957564;29;1124;-45
2024/02/22 12:05:39;;;;;;;;;;;;;;;16.81;43.04;101106.47;4927692;29;1142;-39
2024/02/22 12:08:05;;;;;;;;;;;;;;;16.30;44.56;101100.97;4955654;29;1146;-41
2024/02/22 12:10:31;;;;;;;;;;;;;;;18.41;40.08;101097.00;4956061;29;1132;-43
2024/02/22 12:12:56;;;;;;;;;;;;;;;16.79;42.88;101090.66;4957569;29;1990;-38
2024/02/22 12:15:22;;;;;;;;;;;;;;;16.25;44.13;101095.09;4956347;28;1054;-41
2024/02/22 12:17:51;;;;;;;;;;;;;;;15.91;44.43;101082.22;4952957;29;1102;-38
2024/02/22 12:20:20;;;;;;;;;;;;;;;16.85;43.45;101073.44;4957383;29;1046;-40
2024/02/22 12:22:46;;;;;;;;;;;;;;;16.97;42.59;101071.72;4939736;29;1045;-42
2024/02/22 12:25:11;;;;;;;;;;;;;;;16.18;44.30;101067.28;4957348;29;1097;-40
2024/02/22 12:27:37;;;;;;;;;;;;;;;15.83;44.53;101069.44;4957125;29;1108;-42
2024/02/22 12:30:02;;;;;;;;;;;;;;;15.65;44.34;101069.69;4948248;29;1142;-41
2024/02/22 12:32:28;;;;;;;;;;;;;;;15.57;44.18;101071.09;4935875;29;2001;-38
2024/02/22 12:34:54;;;;;;;;;;;;;;;16.55;44.10;101074.59;4957318;29;1149;-36
2024/02/22 12:37:19;;;;;;;;;;;;;;;16.72;43.37;101068.97;4957050;29;1005;-41
2024/02/22 12:39:45;;;;;;;;;;;;;;;15.94;45.06;101062.59;4954380;29;1272;-37
2024/02/22 12:42:11;;;;;;;;;;;;;;;17.03;43.24;101066.00;4949120;29;1272;-38